Time;durP1;ratioP1;P1;durP2;ratioP2;P2;SDS_P1;SDS_P2;PMS_P1;PMS_P2;Temp;Humidity;BMP_temperature;BMP_pressure;BME280_temperature;BME280_humidity;BME280_pressure;Samples;Min_cycle;Max_cycle;Signal;HPM_P1;HPM_P2
2021/04/06 00:02:22;;;;;;;8.73;5.90;;;4.20;89.30;;;;;;4889912;29;20188;-70
2021/04/06 00:04:51;;;;;;;9.23;6.23;;;4.20;89.20;;;;;;4887258;29;20188;-71
2021/04/06 00:07:20;;;;;;;8.57;5.20;;;4.20;89.90;;;;;;4890748;29;20185;-70
2021/04/06 00:09:50;;;;;;;5.83;5.23;;;4.20;89.90;;;;;;4889435;29;20181;-70
2021/04/06 00:12:17;;;;;;;5.03;4.63;;;4.10;89.70;;;;;;4889524;29;20169;-71
2021/04/06 00:14:45;;;;;;;8.20;6.17;;;4.10;89.80;;;;;;4890403;29;20182;-70
2021/04/06 00:17:13;;;;;;;9.90;6.13;;;4.10;90.00;;;;;;4889450;29;20184;-70
2021/04/06 00:19:42;;;;;;;5.80;5.23;;;4.10;90.10;;;;;;4891000;29;20245;-70
2021/04/06 00:22:10;;;;;;;12.20;5.73;;;4.10;90.40;;;;;;4886934;29;20329;-70
2021/04/06 00:24:43;;;;;;;11.17;5.90;;;4.10;90.30;;;;;;4888511;29;20655;-71
2021/04/06 00:27:29;;;;;;;10.50;6.87;;;4.10;90.60;;;;;;4889121;29;20181;-71
2021/04/06 00:29:57;;;;;;;9.47;5.40;;;4.00;90.90;;;;;;4889028;29;20208;-71
2021/04/06 00:32:26;;;;;;;9.07;5.10;;;3.90;90.40;;;;;;4886806;29;20615;-70
2021/04/06 00:34:56;;;;;;;8.40;5.80;;;4.00;90.20;;;;;;4888418;29;20181;-70
2021/04/06 00:37:23;;;;;;;7.67;5.67;;;3.90;90.20;;;;;;4889656;29;20184;-69
2021/04/06 00:40:06;;;;;;;6.90;4.70;;;3.90;91.10;;;;;;4887361;29;20709;-70
2021/04/06 00:42:34;;;;;;;6.63;5.00;;;3.90;91.20;;;;;;4889577;29;20256;-70
2021/04/06 00:45:06;;;;;;;7.93;6.07;;;3.90;90.70;;;;;;4886917;29;21029;-70
2021/04/06 00:47:32;;;;;;;11.27;5.83;;;3.90;90.50;;;;;;4886739;29;20181;-69
2021/04/06 00:50:04;;;;;;;6.97;5.37;;;3.90;90.70;;;;;;4888319;29;20192;-70
2021/04/06 00:52:31;;;;;;;8.83;5.93;;;3.90;90.60;;;;;;4888013;29;20244;-69
2021/04/06 00:54:58;;;;;;;4.53;4.13;;;3.80;90.60;;;;;;4887160;29;20185;-69
2021/04/06 00:57:28;;;;;;;8.90;5.40;;;3.80;90.80;;;;;;4886521;29;20188;-70
2021/04/06 01:00:19;;;;;;;8.23;5.37;;;3.80;90.90;;;;;;4888384;29;20248;-69
2021/04/06 01:03:06;;;;;;;8.00;4.70;;;3.80;90.90;;;;;;4887555;29;20200;-70
2021/04/06 01:05:52;;;;;;;8.33;5.17;;;3.80;91.00;;;;;;4889267;29;20702;-70
2021/04/06 01:08:18;;;;;;;8.03;4.30;;;3.80;90.90;;;;;;4888078;29;20177;-70
2021/04/06 01:10:46;;;;;;;5.50;3.93;;;3.80;90.70;;;;;;4886616;29;20246;-69
2021/04/06 01:13:12;;;;;;;8.43;5.53;;;3.70;90.50;;;;;;4888348;29;20177;-70
2021/04/06 01:15:40;;;;;;;7.63;5.60;;;3.80;90.50;;;;;;4888546;29;20187;-70
2021/04/06 01:18:06;;;;;;;5.93;5.03;;;3.80;90.30;;;;;;4889365;29;20302;-70
2021/04/06 01:20:31;;;;;;;7.40;5.70;;;3.70;90.50;;;;;;4887354;29;20645;-70
2021/04/06 01:22:58;;;;;;;6.43;4.90;;;3.70;90.50;;;;;;4885006;29;20264;-70
2021/04/06 01:25:28;;;;;;;12.97;6.87;;;3.70;90.70;;;;;;4888840;29;20211;-70
2021/04/06 01:28:08;;;;;;;11.13;5.80;;;3.70;91.00;;;;;;4889288;29;20184;-70
2021/04/06 01:30:48;;;;;;;5.43;4.93;;;3.70;90.60;;;;;;4887460;29;20214;-70
2021/04/06 01:33:21;;;;;;;8.83;5.40;;;3.70;90.70;;;;;;4872197;29;20744;-70
2021/04/06 01:35:48;;;;;;;6.53;4.97;;;3.70;90.50;;;;;;4888344;29;20188;-70
2021/04/06 01:38:16;;;;;;;6.67;4.77;;;3.70;90.50;;;;;;4885201;29;20216;-70
2021/04/06 01:40:43;;;;;;;6.57;4.73;;;3.60;90.50;;;;;;4887406;29;20221;-70
2021/04/06 01:43:10;;;;;;;7.90;5.07;;;3.60;90.70;;;;;;4885511;29;20208;-70
2021/04/06 01:45:46;;;;;;;5.93;5.10;;;3.60;90.90;;;;;;4888409;29;20185;-69
2021/04/06 01:48:16;;;;;;;4.93;4.40;;;3.60;90.80;;;;;;4888762;29;20180;-69
2021/04/06 01:50:47;;;;;;;4.77;3.83;;;3.60;91.20;;;;;;4887954;29;20675;-69
2021/04/06 01:53:16;;;;;;;4.67;3.73;;;3.60;91.20;;;;;;4888084;29;20600;-69
2021/04/06 01:55:48;;;;;;;4.30;3.83;;;3.50;91.10;;;;;;4888152;29;20268;-71
2021/04/06 01:58:14;;;;;;;4.03;3.63;;;3.60;91.70;;;;;;4885462;29;20249;-71
2021/04/06 02:03:16;;;;;;;6.07;4.80;;;3.50;91.80;;;;;;4888069;29;20212;-72
2021/04/06 02:05:43;;;;;;;5.00;3.87;;;3.50;92.20;;;;;;4887644;29;20177;-71
2021/04/06 02:08:15;;;;;;;11.90;4.50;;;3.50;91.90;;;;;;4891091;29;20192;-71
2021/04/06 02:10:42;;;;;;;3.60;3.30;;;3.50;92.20;;;;;;4892845;29;20177;-71
2021/04/06 02:13:12;;;;;;;4.83;4.43;;;3.40;93.10;;;;;;4892297;29;20207;-71
2021/04/06 02:16:02;;;;;;;5.27;4.73;;;3.40;92.30;;;;;;4891315;29;20317;-71
2021/04/06 02:18:30;;;;;;;3.80;3.43;;;3.40;91.90;;;;;;4890484;29;20207;-71
2021/04/06 02:21:01;;;;;;;3.70;3.23;;;3.40;91.90;;;;;;4890443;29;20185;-70
2021/04/06 02:23:39;;;;;;;4.57;3.90;;;3.40;92.00;;;;;;4891695;29;20286;-70
2021/04/06 02:26:05;;;;;;;5.00;4.43;;;3.40;92.00;;;;;;4890064;29;20188;-70
2021/04/06 02:28:31;;;;;;;5.23;4.13;;;3.30;92.30;;;;;;4890557;29;20244;-70
2021/04/06 02:30:58;;;;;;;5.07;4.57;;;3.30;91.90;;;;;;4891248;29;20643;-70
2021/04/06 02:33:32;;;;;;;4.40;4.00;;;3.30;91.70;;;;;;4890433;29;20185;-70
2021/04/06 02:36:03;;;;;;;4.07;3.67;;;3.30;91.80;;;;;;4889035;29;20193;-70
2021/04/06 02:38:34;;;;;;;3.87;3.33;;;3.30;92.10;;;;;;4890265;29;20332;-70
2021/04/06 02:41:12;;;;;;;5.60;3.97;;;3.20;92.10;;;;;;4891923;29;20261;-70
2021/04/06 02:43:47;;;;;;;4.07;3.70;;;3.30;91.80;;;;;;4889667;29;20184;-70
2021/04/06 02:46:18;;;;;;;5.07;3.63;;;3.20;91.80;;;;;;4891416;29;20682;-71
2021/04/06 02:48:44;;;;;;;4.60;3.93;;;3.20;92.20;;;;;;4890312;29;20189;-70
2021/04/06 02:51:10;;;;;;;4.33;3.70;;;3.20;92.10;;;;;;4889795;29;20191;-71
2021/04/06 02:53:38;;;;;;;7.00;4.13;;;3.20;92.10;;;;;;4888855;29;20197;-70
2021/04/06 02:56:05;;;;;;;6.53;3.90;;;3.10;92.30;;;;;;4888924;29;20245;-71
2021/04/06 02:58:38;;;;;;;3.80;3.50;;;3.20;92.70;;;;;;4890056;29;20312;-70
2021/04/06 03:01:14;;;;;;;5.30;4.10;;;3.20;92.70;;;;;;4888986;29;20197;-70
2021/04/06 03:03:40;;;;;;;3.47;3.17;;;3.10;93.20;;;;;;4890816;29;20195;-70
2021/04/06 03:06:14;;;;;;;3.90;3.50;;;3.20;92.70;;;;;;4889807;29;20264;-71
2021/04/06 03:08:41;;;;;;;3.47;3.17;;;3.10;93.00;;;;;;4891870;29;20230;-70
2021/04/06 03:11:11;;;;;;;4.40;3.33;;;3.10;92.60;;;;;;4889315;29;20186;-70
2021/04/06 03:13:42;;;;;;;7.50;3.70;;;3.10;92.50;;;;;;4888498;29;20209;-70
2021/04/06 03:16:10;;;;;;;3.90;3.50;;;3.10;92.30;;;;;;4891373;29;20189;-71
2021/04/06 03:18:41;;;;;;;5.47;3.87;;;3.10;93.00;;;;;;4890109;29;20217;-71
2021/04/06 03:21:11;;;;;;;5.67;3.70;;;3.00;92.60;;;;;;4889485;29;20191;-70
2021/04/06 03:23:38;;;;;;;4.50;3.93;;;3.00;93.00;;;;;;4891285;29;20185;-70
2021/04/06 03:26:05;;;;;;;10.03;3.50;;;3.00;93.00;;;;;;4891454;29;20212;-71
2021/04/06 03:28:36;;;;;;;4.10;3.80;;;3.00;93.10;;;;;;4891141;29;20193;-71
2021/04/06 03:31:16;;;;;;;3.20;2.70;;;3.00;92.60;;;;;;4885913;29;20188;-71
2021/04/06 03:33:46;;;;;;;4.33;3.50;;;3.00;93.10;;;;;;4890635;29;21737;-71
2021/04/06 03:36:26;;;;;;;4.87;3.20;;;3.00;92.70;;;;;;4890863;29;20200;-71
2021/04/06 03:38:55;;;;;;;4.00;3.60;;;2.90;92.50;;;;;;4889338;29;20234;-71
2021/04/06 03:41:23;;;;;;;3.63;3.13;;;2.90;92.60;;;;;;4889042;29;20212;-70
2021/04/06 03:43:51;;;;;;;5.77;3.93;;;2.90;92.40;;;;;;4887716;29;20189;-71
2021/04/06 03:46:24;;;;;;;4.43;3.80;;;2.80;92.70;;;;;;4891402;29;20173;-70
2021/04/06 03:48:51;;;;;;;6.93;4.77;;;2.80;92.70;;;;;;4887818;29;20189;-70
2021/04/06 03:51:28;;;;;;;3.57;3.17;;;2.80;93.60;;;;;;4887394;29;20247;-70
2021/04/06 03:53:55;;;;;;;8.07;3.93;;;2.80;93.50;;;;;;4890546;29;20204;-71
2021/04/06 03:56:30;;;;;;;5.77;4.30;;;2.80;93.10;;;;;;4888642;29;20573;-71
2021/04/06 03:58:58;;;;;;;3.47;2.73;;;2.80;93.10;;;;;;4888140;29;20204;-70
2021/04/06 04:01:26;;;;;;;4.07;3.77;;;2.80;93.00;;;;;;4886074;29;20679;-70
2021/04/06 04:03:58;;;;;;;5.57;4.60;;;2.80;93.00;;;;;;4888548;29;20245;-70
2021/04/06 04:06:26;;;;;;;4.80;4.30;;;2.70;93.00;;;;;;4888809;29;20224;-71
2021/04/06 04:08:53;;;;;;;4.70;4.30;;;2.70;93.20;;;;;;4890088;29;20187;-70
2021/04/06 04:11:19;;;;;;;4.93;4.43;;;2.80;93.30;;;;;;4887267;29;20826;-70
2021/04/06 04:13:45;;;;;;;5.73;4.57;;;2.80;93.50;;;;;;4888551;29;20184;-71
2021/04/06 04:16:10;;;;;;;5.47;4.20;;;2.80;93.60;;;;;;4888225;29;20205;-70
2021/04/06 04:18:36;;;;;;;4.43;4.10;;;2.80;93.80;;;;;;4887788;29;20213;-71
2021/04/06 04:21:03;;;;;;;9.17;5.27;;;2.80;93.80;;;;;;4888921;29;20208;-71
2021/04/06 04:23:29;;;;;;;5.67;4.43;;;2.80;93.80;;;;;;4889686;29;20185;-70
2021/04/06 04:25:55;;;;;;;4.60;4.20;;;2.80;93.70;;;;;;4889199;29;20193;-69
2021/04/06 04:28:21;;;;;;;5.67;4.37;;;2.80;93.70;;;;;;4888571;29;21037;-69
2021/04/06 04:30:47;;;;;;;6.97;4.57;;;2.90;93.80;;;;;;4887996;29;20730;-70
2021/04/06 04:33:13;;;;;;;6.53;4.83;;;2.90;94.20;;;;;;4888758;29;20245;-70
2021/04/06 04:35:39;;;;;;;5.90;4.27;;;2.90;94.30;;;;;;4889509;29;20683;-71
2021/04/06 04:38:07;;;;;;;6.40;4.40;;;2.90;94.10;;;;;;4888276;29;20275;-70
2021/04/06 04:40:33;;;;;;;4.70;4.30;;;3.00;94.10;;;;;;4888651;29;20232;-71
2021/04/06 04:42:59;;;;;;;5.77;4.50;;;3.00;93.90;;;;;;4888966;29;20188;-71
2021/04/06 04:48:09;;;;;;;5.03;4.53;;;3.00;93.80;;;;;;4888733;29;20612;-72
2021/04/06 04:50:34;;;;;;;5.57;4.50;;;3.10;93.90;;;;;;4889070;29;20185;-72
2021/04/06 04:53:00;;;;;;;5.43;4.87;;;3.10;93.90;;;;;;4888967;29;20681;-73
2021/04/06 04:55:26;;;;;;;4.87;4.43;;;3.10;93.80;;;;;;4887826;29;20209;-72
2021/04/06 04:57:53;;;;;;;7.40;5.27;;;3.20;94.30;;;;;;4888677;29;20189;-72
2021/04/06 05:00:19;;;;;;;6.93;4.87;;;3.20;94.10;;;;;;4886629;29;20239;-71
2021/04/06 05:02:44;;;;;;;10.77;4.77;;;3.20;93.70;;;;;;4886185;29;20211;-71
2021/04/06 05:05:13;;;;;;;5.33;4.13;;;3.30;93.80;;;;;;4888534;29;20185;-71
2021/04/06 05:07:42;;;;;;;9.70;5.77;;;3.30;93.70;;;;;;4886450;29;20576;-71
2021/04/06 05:10:27;;;;;;;5.17;4.67;;;3.40;93.50;;;;;;4889057;29;20189;-70
2021/04/06 05:12:52;;;;;;;9.83;5.37;;;3.40;93.40;;;;;;4886572;29;20209;-71
2021/04/06 05:15:18;;;;;;;9.80;5.97;;;3.40;93.60;;;;;;4884819;29;20189;-71
2021/04/06 05:17:44;;;;;;;6.13;5.23;;;3.40;93.40;;;;;;4890428;29;20658;-72
2021/04/06 05:20:29;;;;;;;8.50;5.87;;;3.50;93.70;;;;;;4888842;29;20216;-71
2021/04/06 05:22:55;;;;;;;7.27;6.53;;;3.50;93.60;;;;;;4887920;29;20690;-72
2021/04/06 05:25:21;;;;;;;6.50;5.47;;;3.50;93.50;;;;;;4888123;29;20177;-71
2021/04/06 05:27:47;;;;;;;12.37;5.70;;;3.60;93.30;;;;;;4886026;29;20181;-73
2021/04/06 05:30:13;;;;;;;6.97;5.93;;;3.60;93.00;;;;;;4888368;29;20268;-71
2021/04/06 05:32:38;;;;;;;6.47;5.20;;;3.70;93.40;;;;;;4887771;29;20263;-72
2021/04/06 05:35:05;;;;;;;10.13;6.30;;;3.70;93.20;;;;;;4887427;29;20199;-75
2021/04/06 05:37:31;;;;;;;6.63;5.67;;;3.80;93.20;;;;;;4887510;29;20189;-73
2021/04/06 05:39:56;;;;;;;6.33;5.63;;;3.90;92.80;;;;;;4886886;29;20215;-75
2021/04/06 05:42:23;;;;;;;5.93;4.83;;;3.90;92.80;;;;;;4889403;29;20189;-73
2021/04/06 05:44:50;;;;;;;9.03;4.93;;;4.00;92.70;;;;;;4891703;29;20185;-74
2021/04/06 05:47:32;;;;;;;7.60;5.33;;;4.10;92.90;;;;;;4893166;29;20184;-73
2021/04/06 05:49:58;;;;;;;6.73;5.00;;;4.20;92.60;;;;;;4890219;29;20185;-72
2021/04/06 05:52:24;;;;;;;5.27;4.57;;;4.20;92.40;;;;;;4889932;29;20201;-73
2021/04/06 05:54:50;;;;;;;7.60;5.20;;;4.30;92.40;;;;;;4892000;29;20194;-72
2021/04/06 05:57:15;;;;;;;5.37;4.87;;;4.40;92.20;;;;;;4890142;29;20685;-69
2021/04/06 05:59:59;;;;;;;6.60;4.40;;;4.50;92.10;;;;;;4890605;29;20707;-70
2021/04/06 06:02:25;;;;;;;5.70;4.93;;;4.50;91.70;;;;;;4891574;29;20244;-70
2021/04/06 06:04:51;;;;;;;8.00;5.80;;;4.60;91.70;;;;;;4890231;29;20216;-70
2021/04/06 06:07:17;;;;;;;7.37;5.47;;;4.70;91.40;;;;;;4892076;29;20189;-70
2021/04/06 06:09:43;;;;;;;7.33;5.50;;;4.80;91.20;;;;;;4892480;29;20181;-69
2021/04/06 06:12:10;;;;;;;5.23;4.53;;;4.80;91.00;;;;;;4893180;29;20185;-70
2021/04/06 06:14:41;;;;;;;5.77;5.07;;;4.90;90.90;;;;;;4891708;29;20191;-69
2021/04/06 06:17:17;;;;;;;5.93;5.33;;;4.90;90.50;;;;;;4888812;29;20173;-68
2021/04/06 06:19:45;;;;;;;5.90;5.40;;;5.00;90.10;;;;;;4891445;29;20359;-68
2021/04/06 06:22:16;;;;;;;7.40;5.57;;;5.00;90.30;;;;;;4889560;29;20200;-69
2021/04/06 06:24:45;;;;;;;4.63;3.90;;;5.10;90.70;;;;;;4891379;29;20260;-68
2021/04/06 06:27:23;;;;;;;4.00;3.60;;;5.20;90.40;;;;;;4891705;29;20200;-69
2021/04/06 06:29:50;;;;;;;6.13;4.57;;;5.20;89.50;;;;;;4888331;29;20734;-68
2021/04/06 06:32:23;;;;;;;4.47;4.07;;;5.30;89.60;;;;;;4885020;29;20579;-68
2021/04/06 06:34:50;;;;;;;7.10;5.37;;;5.30;89.40;;;;;;4891743;29;20190;-69
2021/04/06 06:37:28;;;;;;;5.73;4.30;;;5.40;89.40;;;;;;4885999;29;20184;-68
2021/04/06 06:39:54;;;;;;;5.93;4.40;;;5.50;89.10;;;;;;4886671;29;20215;-70
2021/04/06 06:42:22;;;;;;;4.77;3.70;;;5.60;89.40;;;;;;4887568;29;20204;-69
2021/04/06 06:44:48;;;;;;;6.73;3.87;;;5.70;89.40;;;;;;4889131;29;20185;-70
2021/04/06 06:47:21;;;;;;;9.73;3.67;;;5.80;89.00;;;;;;4888935;29;20254;-70
2021/04/06 06:49:47;;;;;;;3.43;3.23;;;5.90;88.50;;;;;;4891983;29;20227;-71
2021/04/06 06:52:22;;;;;;;3.67;3.33;;;6.10;88.50;;;;;;4886607;29;20563;-69
2021/04/06 06:54:55;;;;;;;6.90;3.07;;;6.20;87.60;;;;;;4889618;29;20188;-70
2021/04/06 06:57:35;;;;;;;4.00;3.70;;;6.30;88.10;;;;;;4889427;29;20190;-70
2021/04/06 07:00:21;;;;;;;6.47;4.10;;;6.40;87.70;;;;;;4884662;29;20217;-70
2021/04/06 07:02:47;;;;;;;2.73;2.53;;;6.40;86.70;;;;;;4888688;29;20268;-70
2021/04/06 07:05:25;;;;;;;5.57;3.30;;;6.50;87.00;;;;;;4888383;29;20675;-70
2021/04/06 07:08:03;;;;;;;7.00;3.33;;;6.60;87.00;;;;;;4886728;29;20211;-70
2021/04/06 07:10:49;;;;;;;2.73;2.63;;;6.60;87.00;;;;;;4888042;29;20177;-70
2021/04/06 07:13:18;;;;;;;3.67;3.37;;;6.70;86.60;;;;;;4884322;29;20220;-70
2021/04/06 07:15:45;;;;;;;3.77;3.43;;;6.80;86.80;;;;;;4888319;29;20182;-69
2021/04/06 07:18:17;;;;;;;2.87;2.63;;;6.90;86.60;;;;;;4887118;29;20678;-69
2021/04/06 07:20:58;;;;;;;2.83;2.63;;;7.00;85.80;;;;;;4887987;29;20195;-69
2021/04/06 07:23:39;;;;;;;4.30;3.43;;;7.00;85.30;;;;;;4883652;29;20292;-68
2021/04/06 07:26:11;;;;;;;3.20;3.00;;;7.10;85.00;;;;;;4884881;29;20284;-68
2021/04/06 07:28:38;;;;;;;3.80;3.47;;;7.10;84.50;;;;;;4884830;29;20812;-68
2021/04/06 07:31:05;;;;;;;3.37;3.17;;;7.20;85.00;;;;;;4885540;29;20189;-69
2021/04/06 07:33:32;;;;;;;3.20;3.10;;;7.20;85.30;;;;;;4885837;29;20576;-69
2021/04/06 07:36:07;;;;;;;3.53;3.23;;;7.30;85.50;;;;;;4886445;29;20272;-69
2021/04/06 07:38:38;;;;;;;7.30;3.73;;;7.40;85.10;;;;;;4883243;29;20217;-70
2021/04/06 07:41:05;;;;;;;4.73;4.33;;;7.50;85.20;;;;;;4886398;29;20220;-68
2021/04/06 07:43:32;;;;;;;4.17;3.73;;;7.60;84.70;;;;;;4882185;29;20249;-70
2021/04/06 07:45:58;;;;;;;6.13;4.97;;;7.70;84.80;;;;;;4888834;29;20532;-67
2021/04/06 07:49:08;;;;;;;4.43;4.07;;;7.80;83.60;;;;;;4888041;29;20252;-68
2021/04/06 07:51:39;;;;;;;4.87;4.20;;;7.90;84.10;;;;;;4834360;29;20198;-69
2021/04/06 07:54:31;;;;;;;4.40;4.00;;;8.00;83.90;;;;;;4844889;29;20213;-69
2021/04/06 07:56:59;;;;;;;5.57;3.97;;;8.20;83.60;;;;;;4782366;29;20208;-70
2021/04/06 07:59:24;;;;;;;5.60;3.93;;;8.30;82.60;;;;;;4783138;29;20237;-68
2021/04/06 08:01:50;;;;;;;4.67;4.00;;;8.40;83.40;;;;;;4782784;29;20938;-69
2021/04/06 08:04:17;;;;;;;4.40;4.00;;;8.50;82.60;;;;;;4788584;29;20189;-68
2021/04/06 08:06:47;;;;;;;4.57;3.93;;;8.60;82.30;;;;;;4782622;29;20300;-70
2021/04/06 08:09:30;;;;;;;3.63;3.17;;;8.70;82.10;;;;;;4784439;29;20216;-68
2021/04/06 08:12:06;;;;;;;4.23;3.53;;;8.90;80.40;;;;;;4779081;29;20278;-70
2021/04/06 08:14:53;;;;;;;4.40;3.77;;;9.00;80.00;;;;;;4780436;29;20204;-70
2021/04/06 08:17:24;;;;;;;5.27;4.53;;;9.10;80.30;;;;;;4781734;29;20640;-70
2021/04/06 08:19:54;;;;;;;4.80;4.27;;;9.20;81.50;;;;;;4782684;29;20239;-70
2021/04/06 08:22:27;;;;;;;4.93;4.30;;;9.30;81.20;;;;;;4777536;29;20266;-67
2021/04/06 08:25:20;;;;;;;4.77;4.37;;;9.50;80.10;;;;;;4795308;29;20204;-70
2021/04/06 08:27:51;;;;;;;5.00;4.50;;;9.60;79.20;;;;;;4801679;29;20197;-70
2021/04/06 08:30:21;;;;;;;5.23;4.77;;;9.80;80.00;;;;;;4801206;29;20191;-69
2021/04/06 08:32:58;;;;;;;5.97;5.03;;;9.90;79.90;;;;;;4801093;29;20177;-70
2021/04/06 08:35:46;;;;;;;5.07;4.67;;;10.10;79.20;;;;;;4885200;29;20196;-70
2021/04/06 08:38:31;;;;;;;4.43;4.03;;;10.20;78.70;;;;;;4882703;29;20192;-69
2021/04/06 08:41:03;;;;;;;5.20;3.63;;;10.50;77.50;;;;;;4888539;29;20216;-69
2021/04/06 08:43:32;;;;;;;4.70;4.20;;;10.70;77.80;;;;;;4888854;29;20185;-70
2021/04/06 08:46:07;;;;;;;4.20;3.90;;;11.00;78.40;;;;;;4882438;29;20190;-68
2021/04/06 08:48:51;;;;;;;4.40;4.00;;;11.40;76.00;;;;;;4878527;29;20188;-70
2021/04/06 08:51:33;;;;;;;4.68;4.28;;;12.00;76.00;;;;;;4878136;29;20182;-69
2021/04/06 08:54:01;;;;;;;7.82;4.57;;;12.80;73.20;;;;;;4882658;29;20204;-68
2021/04/06 08:56:31;;;;;;;5.90;4.40;;;13.50;72.20;;;;;;4884314;29;20280;-70
2021/04/06 08:59:34;;;;;;;4.47;4.10;;;14.30;71.60;;;;;;4885749;29;20216;-69
2021/04/06 09:02:02;;;;;;;5.60;4.65;;;15.40;67.70;;;;;;4885292;29;20197;-69
2021/04/06 09:04:31;;;;;;;6.63;4.53;;;16.40;66.10;;;;;;4885905;29;20827;-69
2021/04/06 09:06:57;;;;;;;6.18;4.07;;;17.30;64.30;;;;;;4879871;29;20189;-69
2021/04/06 09:09:25;;;;;;;4.68;4.38;;;18.20;63.70;;;;;;4884939;29;20276;-69
2021/04/06 09:11:53;;;;;;;6.82;4.22;;;19.10;61.60;;;;;;4887510;29;20185;-69
2021/04/06 09:14:19;;;;;;;4.80;4.18;;;19.90;59.90;;;;;;4883306;29;20217;-69
2021/04/06 09:16:45;;;;;;;4.90;4.55;;;20.80;58.90;;;;;;4888427;29;20196;-69
2021/04/06 09:19:16;;;;;;;4.70;4.30;;;21.60;57.50;;;;;;4889315;29;20217;-69
2021/04/06 09:21:47;;;;;;;4.82;4.45;;;22.40;56.10;;;;;;4888692;29;20193;-68
2021/04/06 09:24:15;;;;;;;4.00;3.72;;;23.20;54.90;;;;;;4875876;29;20193;-68
2021/04/06 09:26:43;;;;;;;4.25;3.83;;;23.80;54.00;;;;;;4881514;29;20192;-69
2021/04/06 09:29:17;;;;;;;6.65;4.20;;;24.30;53.50;;;;;;4887865;29;20216;-69
2021/04/06 09:31:43;;;;;;;6.78;4.45;;;24.60;52.60;;;;;;4868563;29;20267;-68
2021/04/06 09:34:31;;;;;;;4.68;4.32;;;24.80;51.70;;;;;;4868606;29;20738;-68
2021/04/06 09:37:07;;;;;;;4.50;4.20;;;24.70;52.20;;;;;;4882686;29;20204;-68
2021/04/06 09:39:34;;;;;;;5.13;4.63;;;24.80;51.20;;;;;;4884968;29;20252;-69
2021/04/06 09:42:01;;;;;;;3.88;3.67;;;25.00;51.00;;;;;;4884515;29;20648;-67
2021/04/06 09:44:31;;;;;;;3.33;3.03;;;25.40;51.20;;;;;;4887889;29;20946;-68
2021/04/06 09:47:00;;;;;;;4.10;3.83;;;25.80;50.70;;;;;;4874979;29;20252;-68
2021/04/06 09:49:38;;;;;;;4.38;3.75;;;26.00;50.90;;;;;;4884169;29;20185;-68
2021/04/06 09:52:13;;;;;;;3.50;3.38;;;26.30;49.10;;;;;;4887034;29;20239;-69
2021/04/06 09:54:43;;;;;;;3.58;3.10;;;26.20;48.60;;;;;;4883634;29;20197;-69
2021/04/06 09:57:11;;;;;;;5.20;3.83;;;26.30;49.80;;;;;;4881569;29;20208;-68
2021/04/06 09:59:38;;;;;;;4.03;3.83;;;26.50;48.70;;;;;;4867979;29;20710;-69
2021/04/06 10:02:05;;;;;;;4.88;3.63;;;26.30;49.80;;;;;;4884804;29;20193;-69
2021/04/06 10:04:45;;;;;;;4.45;3.35;;;26.10;50.70;;;;;;4887822;29;20177;-68
2021/04/06 10:07:14;;;;;;;3.33;3.22;;;26.50;50.00;;;;;;4883736;29;20207;-69
2021/04/06 10:09:49;;;;;;;3.22;3.08;;;27.10;48.90;;;;;;4883516;29;20225;-69
2021/04/06 10:12:16;;;;;;;3.22;3.08;;;27.80;49.10;;;;;;4885670;29;20189;-68
2021/04/06 10:14:43;;;;;;;3.53;3.33;;;28.50;49.00;;;;;;4881301;29;20181;-68
2021/04/06 10:20:10;;;;;;;3.17;3.08;;;29.60;45.10;;;;;;4883123;29;20279;-68
2021/04/06 10:22:42;;;;;;;4.15;3.47;;;29.10;47.70;;;;;;4881664;29;20182;-68
2021/04/06 10:25:08;;;;;;;2.83;2.70;;;29.00;47.40;;;;;;4880036;29;20908;-68
2021/04/06 10:27:39;;;;;;;5.65;2.85;;;29.40;46.80;;;;;;4885031;29;20185;-68
2021/04/06 10:30:11;;;;;;;5.30;3.13;;;30.00;47.70;;;;;;4880124;29;20197;-68
2021/04/06 10:32:38;;;;;;;3.83;3.47;;;30.70;46.50;;;;;;4887438;29;20188;-68
2021/04/06 10:35:09;;;;;;;4.15;3.90;;;31.40;46.10;;;;;;4888242;29;20271;-69
2021/04/06 10:37:45;;;;;;;4.50;4.10;;;32.00;45.50;;;;;;4885077;29;20675;-69
2021/04/06 10:40:19;;;;;;;3.55;3.25;;;31.90;44.00;;;;;;4883207;29;20223;-68
2021/04/06 10:42:48;;;;;;;3.72;3.45;;;32.00;45.40;;;;;;4890584;29;20569;-69
2021/04/06 10:45:13;;;;;;;3.50;3.25;;;32.20;44.00;;;;;;4885809;29;20193;-69
2021/04/06 10:47:39;;;;;;;3.20;3.03;;;32.60;45.20;;;;;;4886057;29;20181;-69
2021/04/06 10:50:05;;;;;;;3.60;3.25;;;33.00;42.60;;;;;;4888628;29;20237;-68
2021/04/06 10:52:34;;;;;;;2.88;2.67;;;33.40;44.60;;;;;;4889643;29;20307;-68
2021/04/06 10:55:01;;;;;;;3.35;3.10;;;33.80;43.20;;;;;;4890125;29;20219;-67
2021/04/06 10:57:36;;;;;;;3.33;3.22;;;34.00;44.00;;;;;;4890730;29;20177;-68
2021/04/06 11:00:25;;;;;;;5.35;3.05;;;34.30;42.00;;;;;;4878031;29;20216;-68
2021/04/06 11:03:18;;;;;;;6.47;3.05;;;34.60;41.20;;;;;;4885521;29;20198;-69
2021/04/06 11:05:45;;;;;;;6.15;2.75;;;34.90;40.20;;;;;;4889346;29;20280;-69
2021/04/06 11:08:25;;;;;;;4.72;3.30;;;35.00;41.10;;;;;;4888393;29;20832;-69
2021/04/06 11:10:54;;;;;;;3.58;2.60;;;34.70;40.60;;;;;;4886172;29;20255;-69
2021/04/06 11:13:21;;;;;;;2.85;2.65;;;34.30;41.60;;;;;;4885327;29;20197;-74
2021/04/06 11:15:47;;;;;;;3.38;2.95;;;33.90;43.00;;;;;;4888367;29;20181;-68
2021/04/06 11:18:13;;;;;;;3.00;2.80;;;33.90;43.30;;;;;;4877074;29;20181;-70
2021/04/06 11:20:39;;;;;;;3.33;2.97;;;34.10;43.60;;;;;;4887360;29;20185;-70
2021/04/06 11:23:05;;;;;;;5.75;3.00;;;34.30;42.80;;;;;;4884758;29;20588;-69
2021/04/06 11:25:31;;;;;;;2.83;2.72;;;34.60;41.30;;;;;;4885542;29;20184;-70
2021/04/06 11:28:00;;;;;;;3.80;2.80;;;34.90;41.90;;;;;;4888175;29;20251;-70
2021/04/06 11:30:35;;;;;;;2.90;2.80;;;35.20;40.90;;;;;;4885743;29;20993;-70
2021/04/06 11:33:03;;;;;;;2.70;2.60;;;35.60;41.50;;;;;;4889401;29;20199;-69
2021/04/06 11:35:31;;;;;;;2.63;2.53;;;35.80;39.10;;;;;;4889837;29;20187;-70
2021/04/06 11:37:57;;;;;;;2.50;2.45;;;35.90;40.40;;;;;;4886689;29;20177;-69
2021/04/06 11:40:24;;;;;;;2.58;2.30;;;36.00;41.70;;;;;;4881677;29;20217;-71
2021/04/06 11:42:50;;;;;;;2.67;2.50;;;36.10;41.50;;;;;;4882118;29;20219;-71
2021/04/06 11:45:16;;;;;;;3.22;3.03;;;36.20;39.20;;;;;;4884285;29;20617;-71
2021/04/06 11:47:42;;;;;;;2.90;2.70;;;36.30;40.80;;;;;;4885864;29;20188;-71
2021/04/06 11:50:09;;;;;;;3.40;3.20;;;36.60;39.00;;;;;;4883406;29;20829;-71
2021/04/06 11:52:35;;;;;;;3.20;1.90;;;36.50;39.20;;;;;;4887592;29;20670;-69
2021/04/06 11:55:02;;;;;;;3.03;2.30;;;36.70;40.70;;;;;;4887091;29;20177;-70
2021/04/06 11:57:28;;;;;;;2.35;1.92;;;36.70;38.70;;;;;;4886854;29;20184;-70
2021/04/06 11:59:54;;;;;;;2.70;2.50;;;36.50;39.90;;;;;;4886237;29;20219;-69
2021/04/06 12:02:20;;;;;;;2.10;2.10;;;36.30;39.80;;;;;;4888519;29;20197;-69
2021/04/06 12:04:45;;;;;;;2.50;2.20;;;35.70;38.60;;;;;;4884286;29;20257;-69
2021/04/06 12:07:11;;;;;;;3.22;2.28;;;34.60;41.60;;;;;;4887090;29;20187;-69
2021/04/06 12:09:37;;;;;;;2.25;2.17;;;34.00;40.10;;;;;;4886858;29;21033;-70
2021/04/06 12:12:03;;;;;;;2.30;2.10;;;33.70;41.30;;;;;;4888041;29;20239;-72
2021/04/06 12:14:29;;;;;;;2.40;2.40;;;34.00;41.50;;;;;;4886899;29;20247;-71
2021/04/06 12:16:55;;;;;;;3.35;2.50;;;34.00;40.60;;;;;;4888098;29;20947;-70
2021/04/06 12:19:21;;;;;;;2.25;2.13;;;33.90;41.80;;;;;;4887197;29;20204;-69
2021/04/06 12:21:47;;;;;;;2.53;2.40;;;33.40;40.90;;;;;;4888475;29;20283;-71
2021/04/06 12:24:13;;;;;;;3.40;2.25;;;32.70;41.60;;;;;;4885819;29;20658;-69
2021/04/06 12:26:39;;;;;;;2.55;2.45;;;31.90;42.20;;;;;;4886648;29;20188;-69
2021/04/06 12:29:04;;;;;;;4.68;2.78;;;31.20;42.50;;;;;;4885136;29;20201;-71
2021/04/06 12:31:30;;;;;;;2.20;2.10;;;31.10;44.40;;;;;;4887804;29;20187;-69
2021/04/06 12:33:56;;;;;;;2.30;2.00;;;31.30;41.70;;;;;;4879769;29;20192;-69
2021/04/06 12:36:23;;;;;;;4.82;2.00;;;30.90;40.80;;;;;;4886616;29;20260;-70
2021/04/06 12:38:49;;;;;;;2.67;2.47;;;30.40;41.80;;;;;;4888481;29;20220;-70
2021/04/06 12:41:16;;;;;;;2.40;2.30;;;30.10;41.00;;;;;;4887743;29;20272;-70
2021/04/06 12:43:42;;;;;;;2.42;2.15;;;30.10;41.80;;;;;;4886833;29;20871;-70
2021/04/06 12:46:07;;;;;;;2.28;2.10;;;30.60;42.50;;;;;;4885796;29;20189;-70
2021/04/06 12:48:33;;;;;;;2.17;2.17;;;31.10;42.60;;;;;;4886453;29;20650;-70
2021/04/06 12:50:59;;;;;;;2.75;2.40;;;31.40;41.20;;;;;;4885379;29;20201;-71
2021/04/06 12:53:24;;;;;;;2.35;2.15;;;30.90;42.00;;;;;;4887407;29;20200;-70
2021/04/06 12:55:51;;;;;;;2.50;2.05;;;30.30;41.20;;;;;;4885349;29;20181;-69
2021/04/06 12:58:16;;;;;;;2.92;2.05;;;30.20;42.60;;;;;;4883426;29;20185;-68
2021/04/06 13:00:42;;;;;;;2.40;2.30;;;30.40;42.30;;;;;;4885473;29;20934;-68
2021/04/06 13:03:08;;;;;;;3.05;2.10;;;30.90;41.20;;;;;;4886039;29;20939;-69
2021/04/06 13:05:33;;;;;;;1.63;1.52;;;31.30;41.90;;;;;;4888785;29;20249;-70
2021/04/06 13:07:59;;;;;;;1.80;1.67;;;31.80;42.00;;;;;;4885711;29;20203;-68
2021/04/06 13:10:25;;;;;;;2.33;2.10;;;32.00;41.70;;;;;;4887156;29;20185;-68
2021/04/06 13:12:52;;;;;;;1.90;1.80;;;31.80;41.80;;;;;;4884362;29;20186;-69
2021/04/06 13:15:18;;;;;;;1.92;1.83;;;29.90;42.60;;;;;;4886632;29;20185;-69
2021/04/06 13:17:44;;;;;;;1.88;1.77;;;29.90;42.60;;;;;;4886188;29;20204;-68